Terminal Aerodrome Forecast
Issued by NWS

Home | Current Version | Previous Version | Text Only | Print | Product List | Glossary On
Versions: 1 2 3 4 5 6 7 8 9 10 11 12 13 14 15 16 17 18 19 20 21 22 23 24 25 26 27 28 29 30 31
000
FTUS43 KLOT 232300
TAFORD
TAF
KORD 232330Z 2400/2506 07008KT P6SM SCT120 OVC250
     FM240400 09005KT P6SM VCSH SCT040 OVC070
     FM240900 11009KT P6SM BKN090
     FM241400 14016G24KT P6SM BKN200
     FM241700 15020G30KT P6SM SCT050 BKN150
     FM242200 17015G24KT P6SM VCSH BKN050
     FM250100 18009KT 6SM -SHRA SCT020 OVC040=

USA.gov is the U.S. government's official web portal to all federal, state and local government web resources and services.